sensor_id;sensor_type;location;lat;lon;timestamp;P1;durP1;ratioP1;P2;durP2;ratioP2
53513;SDS011;39768;54.148;12.174;2022-08-01T00:03:49;3.53;;;2.53;;
53513;SDS011;39768;54.148;12.174;2022-08-01T00:07:51;4.57;;;2.90;;
53513;SDS011;39768;54.148;12.174;2022-08-01T00:11:53;3.30;;;3.00;;
53513;SDS011;39768;54.148;12.174;2022-08-01T00:15:56;6.45;;;2.47;;
53513;SDS011;39768;54.148;12.174;2022-08-01T00:19:57;6.63;;;2.75;;
53513;SDS011;39768;54.148;12.174;2022-08-01T00:23:59;5.47;;;2.42;;
53513;SDS011;39768;54.148;12.174;2022-08-01T00:28:01;2.83;;;2.53;;
53513;SDS011;39768;54.148;12.174;2022-08-01T00:32:04;3.35;;;2.67;;
53513;SDS011;39768;54.148;12.174;2022-08-01T00:36:06;3.78;;;2.55;;
53513;SDS011;39768;54.148;12.174;2022-08-01T00:40:08;3.22;;;2.40;;
53513;SDS011;39768;54.148;12.174;2022-08-01T00:44:09;2.60;;;2.25;;
53513;SDS011;39768;54.148;12.174;2022-08-01T00:48:11;5.68;;;1.98;;
53513;SDS011;39768;54.148;12.174;2022-08-01T00:52:12;2.42;;;2.22;;
53513;SDS011;39768;54.148;12.174;2022-08-01T00:56:14;3.70;;;2.35;;
53513;SDS011;39768;54.148;12.174;2022-08-01T01:00:15;2.30;;;2.00;;
53513;SDS011;39768;54.148;12.174;2022-08-01T01:04:17;2.30;;;2.10;;
53513;SDS011;39768;54.148;12.174;2022-08-01T01:08:20;7.13;;;2.13;;
53513;SDS011;39768;54.148;12.174;2022-08-01T01:12:30;2.22;;;1.55;;
53513;SDS011;39768;54.148;12.174;2022-08-01T01:16:39;3.92;;;1.58;;
53513;SDS011;39768;54.148;12.174;2022-08-01T01:20:44;1.75;;;1.65;;
53513;SDS011;39768;54.148;12.174;2022-08-01T01:25:17;1.80;;;1.42;;
53513;SDS011;39768;54.148;12.174;2022-08-01T01:29:50;1.58;;;1.48;;
53513;SDS011;39768;54.148;12.174;2022-08-01T01:33:59;3.40;;;1.40;;
53513;SDS011;39768;54.148;12.174;2022-08-01T01:38:26;1.55;;;1.45;;
53513;SDS011;39768;54.148;12.174;2022-08-01T01:42:27;1.73;;;1.63;;
53513;SDS011;39768;54.148;12.174;2022-08-01T01:46:31;1.80;;;1.70;;
53513;SDS011;39768;54.148;12.174;2022-08-01T01:50:33;2.75;;;2.42;;
53513;SDS011;39768;54.148;12.174;2022-08-01T01:54:37;2.42;;;1.40;;
53513;SDS011;39768;54.148;12.174;2022-08-01T01:58:43;6.35;;;1.42;;
53513;SDS011;39768;54.148;12.174;2022-08-01T02:02:45;3.70;;;2.28;;
53513;SDS011;39768;54.148;12.174;2022-08-01T02:06:47;3.33;;;1.50;;
53513;SDS011;39768;54.148;12.174;2022-08-01T02:10:51;1.55;;;1.42;;
53513;SDS011;39768;54.148;12.174;2022-08-01T02:15:13;1.73;;;1.48;;
53513;SDS011;39768;54.148;12.174;2022-08-01T02:19:18;2.08;;;1.88;;
53513;SDS011;39768;54.148;12.174;2022-08-01T02:23:20;4.53;;;2.00;;
53513;SDS011;39768;54.148;12.174;2022-08-01T02:27:25;2.13;;;1.90;;
53513;SDS011;39768;54.148;12.174;2022-08-01T02:31:32;1.80;;;1.63;;
53513;SDS011;39768;54.148;12.174;2022-08-01T02:35:40;9.18;;;2.20;;
53513;SDS011;39768;54.148;12.174;2022-08-01T02:40:03;1.85;;;1.70;;
53513;SDS011;39768;54.148;12.174;2022-08-01T02:44:07;2.30;;;2.10;;
53513;SDS011;39768;54.148;12.174;2022-08-01T02:48:12;4.15;;;1.60;;
53513;SDS011;39768;54.148;12.174;2022-08-01T02:52:17;1.77;;;1.63;;
53513;SDS011;39768;54.148;12.174;2022-08-01T02:56:21;14.32;;;1.92;;
53513;SDS011;39768;54.148;12.174;2022-08-01T03:00:25;3.80;;;1.98;;
53513;SDS011;39768;54.148;12.174;2022-08-01T03:04:28;7.97;;;1.95;;
53513;SDS011;39768;54.148;12.174;2022-08-01T03:08:32;17.58;;;1.58;;
53513;SDS011;39768;54.148;12.174;2022-08-01T03:12:35;1.60;;;1.50;;
53513;SDS011;39768;54.148;12.174;2022-08-01T03:16:40;3.58;;;2.05;;
53513;SDS011;39768;54.148;12.174;2022-08-01T03:20:45;3.97;;;1.88;;
53513;SDS011;39768;54.148;12.174;2022-08-01T03:24:47;1.58;;;1.48;;
53513;SDS011;39768;54.148;12.174;2022-08-01T03:28:55;5.22;;;1.35;;
53513;SDS011;39768;54.148;12.174;2022-08-01T03:32:59;2.55;;;1.98;;
53513;SDS011;39768;54.148;12.174;2022-08-01T03:37:02;2.17;;;1.40;;
53513;SDS011;39768;54.148;12.174;2022-08-01T03:41:11;2.03;;;1.85;;
53513;SDS011;39768;54.148;12.174;2022-08-01T03:45:21;1.85;;;1.63;;
53513;SDS011;39768;54.148;12.174;2022-08-01T03:49:25;1.60;;;1.50;;
53513;SDS011;39768;54.148;12.174;2022-08-01T03:53:31;1.55;;;1.45;;
53513;SDS011;39768;54.148;12.174;2022-08-01T03:57:35;2.63;;;1.50;;
53513;SDS011;39768;54.148;12.174;2022-08-01T04:01:37;1.83;;;1.65;;
53513;SDS011;39768;54.148;12.174;2022-08-01T04:05:42;1.50;;;1.38;;
53513;SDS011;39768;54.148;12.174;2022-08-01T04:09:43;1.73;;;1.58;;
53513;SDS011;39768;54.148;12.174;2022-08-01T04:13:45;5.35;;;1.98;;
53513;SDS011;39768;54.148;12.174;2022-08-01T04:17:47;2.03;;;1.80;;
53513;SDS011;39768;54.148;12.174;2022-08-01T04:21:49;2.50;;;1.90;;
53513;SDS011;39768;54.148;12.174;2022-08-01T04:25:50;2.97;;;2.13;;
53513;SDS011;39768;54.148;12.174;2022-08-01T04:29:53;3.63;;;2.53;;
53513;SDS011;39768;54.148;12.174;2022-08-01T04:33:59;10.75;;;2.88;;
53513;SDS011;39768;54.148;12.174;2022-08-01T04:38:04;9.10;;;3.40;;
53513;SDS011;39768;54.148;12.174;2022-08-01T04:42:06;4.68;;;3.45;;
53513;SDS011;39768;54.148;12.174;2022-08-01T04:46:08;6.40;;;3.88;;
53513;SDS011;39768;54.148;12.174;2022-08-01T04:50:11;6.75;;;4.70;;
53513;SDS011;39768;54.148;12.174;2022-08-01T04:54:12;6.78;;;4.18;;
53513;SDS011;39768;54.148;12.174;2022-08-01T04:58:14;3.47;;;3.13;;
53513;SDS011;39768;54.148;12.174;2022-08-01T05:02:18;6.78;;;3.33;;
53513;SDS011;39768;54.148;12.174;2022-08-01T05:06:20;5.70;;;3.70;;
53513;SDS011;39768;54.148;12.174;2022-08-01T05:10:21;5.82;;;3.85;;
53513;SDS011;39768;54.148;12.174;2022-08-01T05:14:23;8.88;;;3.20;;
53513;SDS011;39768;54.148;12.174;2022-08-01T05:18:29;4.57;;;4.05;;
53513;SDS011;39768;54.148;12.174;2022-08-01T05:22:30;10.07;;;3.53;;
53513;SDS011;39768;54.148;12.174;2022-08-01T05:26:31;6.95;;;4.70;;
53513;SDS011;39768;54.148;12.174;2022-08-01T05:30:34;4.63;;;4.18;;
53513;SDS011;39768;54.148;12.174;2022-08-01T05:34:35;5.93;;;3.95;;
53513;SDS011;39768;54.148;12.174;2022-08-01T05:38:37;7.60;;;4.65;;
53513;SDS011;39768;54.148;12.174;2022-08-01T05:42:38;6.18;;;4.50;;
53513;SDS011;39768;54.148;12.174;2022-08-01T05:46:40;6.85;;;4.15;;
53513;SDS011;39768;54.148;12.174;2022-08-01T05:50:41;7.63;;;4.65;;
53513;SDS011;39768;54.148;12.174;2022-08-01T05:54:43;7.45;;;4.22;;
53513;SDS011;39768;54.148;12.174;2022-08-01T05:58:44;7.32;;;4.53;;
53513;SDS011;39768;54.148;12.174;2022-08-01T06:02:46;6.57;;;3.92;;
53513;SDS011;39768;54.148;12.174;2022-08-01T06:06:48;7.00;;;3.95;;
53513;SDS011;39768;54.148;12.174;2022-08-01T06:10:49;3.92;;;3.03;;
53513;SDS011;39768;54.148;12.174;2022-08-01T06:14:51;6.10;;;3.72;;
53513;SDS011;39768;54.148;12.174;2022-08-01T06:18:52;5.15;;;3.53;;
53513;SDS011;39768;54.148;12.174;2022-08-01T06:22:57;3.72;;;3.15;;
53513;SDS011;39768;54.148;12.174;2022-08-01T06:27:01;3.55;;;3.22;;
53513;SDS011;39768;54.148;12.174;2022-08-01T06:31:03;6.45;;;3.08;;
53513;SDS011;39768;54.148;12.174;2022-08-01T06:35:04;3.40;;;2.30;;
53513;SDS011;39768;54.148;12.174;2022-08-01T06:39:06;2.35;;;1.67;;
53513;SDS011;39768;54.148;12.174;2022-08-01T06:43:08;2.33;;;2.13;;
53513;SDS011;39768;54.148;12.174;2022-08-01T06:47:09;2.13;;;1.95;;
53513;SDS011;39768;54.148;12.174;2022-08-01T06:51:11;2.13;;;1.95;;
53513;SDS011;39768;54.148;12.174;2022-08-01T06:55:16;3.53;;;1.88;;
53513;SDS011;39768;54.148;12.174;2022-08-01T06:59:18;2.15;;;1.95;;
53513;SDS011;39768;54.148;12.174;2022-08-01T07:03:19;2.15;;;1.95;;
53513;SDS011;39768;54.148;12.174;2022-08-01T07:07:20;2.35;;;1.60;;
53513;SDS011;39768;54.148;12.174;2022-08-01T07:11:23;3.13;;;2.00;;
53513;SDS011;39768;54.148;12.174;2022-08-01T07:15:25;0.95;;;0.95;;
53513;SDS011;39768;54.148;12.174;2022-08-01T07:19:27;1.50;;;1.40;;
53513;SDS011;39768;54.148;12.174;2022-08-01T07:23:29;1.25;;;1.15;;
53513;SDS011;39768;54.148;12.174;2022-08-01T07:27:34;2.70;;;1.10;;
53513;SDS011;39768;54.148;12.174;2022-08-01T07:31:36;1.23;;;1.13;;
53513;SDS011;39768;54.148;12.174;2022-08-01T07:35:38;1.35;;;1.30;;
53513;SDS011;39768;54.148;12.174;2022-08-01T07:39:40;1.52;;;1.42;;
53513;SDS011;39768;54.148;12.174;2022-08-01T07:43:42;2.80;;;0.70;;
53513;SDS011;39768;54.148;12.174;2022-08-01T07:47:53;1.95;;;1.20;;
53513;SDS011;39768;54.148;12.174;2022-08-01T07:51:54;1.60;;;1.50;;
53513;SDS011;39768;54.148;12.174;2022-08-01T07:56:04;1.27;;;1.17;;
53513;SDS011;39768;54.148;12.174;2022-08-01T08:00:08;0.93;;;0.93;;
53513;SDS011;39768;54.148;12.174;2022-08-01T08:04:10;1.38;;;1.27;;
53513;SDS011;39768;54.148;12.174;2022-08-01T08:08:12;1.02;;;0.98;;
53513;SDS011;39768;54.148;12.174;2022-08-01T08:12:15;1.20;;;1.08;;
53513;SDS011;39768;54.148;12.174;2022-08-01T08:16:16;1.25;;;1.15;;
53513;SDS011;39768;54.148;12.174;2022-08-01T08:20:18;1.00;;;1.00;;
53513;SDS011;39768;54.148;12.174;2022-08-01T08:24:19;1.17;;;1.08;;
53513;SDS011;39768;54.148;12.174;2022-08-01T08:28:26;1.30;;;1.20;;
53513;SDS011;39768;54.148;12.174;2022-08-01T08:32:28;0.98;;;0.75;;
53513;SDS011;39768;54.148;12.174;2022-08-01T08:36:30;1.00;;;0.90;;
53513;SDS011;39768;54.148;12.174;2022-08-01T08:40:32;1.40;;;0.82;;
53513;SDS011;39768;54.148;12.174;2022-08-01T08:44:36;0.98;;;0.90;;
53513;SDS011;39768;54.148;12.174;2022-08-01T08:48:40;1.42;;;1.13;;
53513;SDS011;39768;54.148;12.174;2022-08-01T08:52:42;0.90;;;0.88;;
53513;SDS011;39768;54.148;12.174;2022-08-01T08:56:45;0.80;;;0.70;;
53513;SDS011;39768;54.148;12.174;2022-08-01T09:00:48;1.08;;;1.02;;
53513;SDS011;39768;54.148;12.174;2022-08-01T09:04:49;0.82;;;0.60;;
53513;SDS011;39768;54.148;12.174;2022-08-01T09:08:51;0.52;;;0.52;;
53513;SDS011;39768;54.148;12.174;2022-08-01T09:13:12;0.60;;;0.60;;
53513;SDS011;39768;54.148;12.174;2022-08-01T09:17:15;0.70;;;0.70;;
53513;SDS011;39768;54.148;12.174;2022-08-01T09:21:18;2.75;;;1.05;;
53513;SDS011;39768;54.148;12.174;2022-08-01T09:25:22;1.08;;;1.02;;
53513;SDS011;39768;54.148;12.174;2022-08-01T09:29:25;1.58;;;0.47;;
53513;SDS011;39768;54.148;12.174;2022-08-01T09:33:47;1.70;;;0.82;;
53513;SDS011;39768;54.148;12.174;2022-08-01T09:37:50;1.08;;;0.63;;
53513;SDS011;39768;54.148;12.174;2022-08-01T09:41:55;2.05;;;0.95;;
53513;SDS011;39768;54.148;12.174;2022-08-01T09:45:58;0.90;;;0.90;;
53513;SDS011;39768;54.148;12.174;2022-08-01T09:50:01;1.83;;;1.70;;
53513;SDS011;39768;54.148;12.174;2022-08-01T09:54:07;1.60;;;1.50;;
53513;SDS011;39768;54.148;12.174;2022-08-01T09:58:10;6.10;;;1.92;;
53513;SDS011;39768;54.148;12.174;2022-08-01T10:02:13;1.70;;;1.60;;
53513;SDS011;39768;54.148;12.174;2022-08-01T10:06:26;1.45;;;1.35;;
53513;SDS011;39768;54.148;12.174;2022-08-01T10:10:28;5.38;;;1.55;;
53513;SDS011;39768;54.148;12.174;2022-08-01T10:14:31;1.15;;;1.08;;
53513;SDS011;39768;54.148;12.174;2022-08-01T10:18:34;3.28;;;1.77;;
53513;SDS011;39768;54.148;12.174;2022-08-01T10:22:36;4.15;;;1.65;;
53513;SDS011;39768;54.148;12.174;2022-08-01T10:26:39;1.98;;;1.45;;
53513;SDS011;39768;54.148;12.174;2022-08-01T10:30:41;3.08;;;2.10;;
53513;SDS011;39768;54.148;12.174;2022-08-01T10:34:44;2.08;;;1.52;;
53513;SDS011;39768;54.148;12.174;2022-08-01T10:38:46;1.40;;;1.30;;
53513;SDS011;39768;54.148;12.174;2022-08-01T10:42:48;1.40;;;1.30;;
53513;SDS011;39768;54.148;12.174;2022-08-01T10:46:52;4.25;;;1.63;;
53513;SDS011;39768;54.148;12.174;2022-08-01T10:51:00;2.00;;;1.10;;
53513;SDS011;39768;54.148;12.174;2022-08-01T10:55:06;2.80;;;1.25;;
53513;SDS011;39768;54.148;12.174;2022-08-01T10:59:13;1.30;;;1.20;;
53513;SDS011;39768;54.148;12.174;2022-08-01T11:03:41;2.78;;;1.40;;
53513;SDS011;39768;54.148;12.174;2022-08-01T11:07:58;1.33;;;1.15;;
53513;SDS011;39768;54.148;12.174;2022-08-01T11:16:29;1.60;;;1.20;;
53513;SDS011;39768;54.148;12.174;2022-08-01T11:20:33;1.77;;;1.17;;
53513;SDS011;39768;54.148;12.174;2022-08-01T11:37:41;8.82;;;1.42;;
53513;SDS011;39768;54.148;12.174;2022-08-01T11:41:43;2.35;;;1.02;;
53513;SDS011;39768;54.148;12.174;2022-08-01T11:45:46;9.20;;;1.25;;
53513;SDS011;39768;54.148;12.174;2022-08-01T11:49:51;2.22;;;0.90;;
53513;SDS011;39768;54.148;12.174;2022-08-01T11:53:56;3.60;;;0.95;;
53513;SDS011;39768;54.148;12.174;2022-08-01T11:58:06;6.03;;;1.10;;
53513;SDS011;39768;54.148;12.174;2022-08-01T12:02:25;5.90;;;1.00;;
53513;SDS011;39768;54.148;12.174;2022-08-01T12:06:31;2.35;;;0.90;;
53513;SDS011;39768;54.148;12.174;2022-08-01T12:10:34;7.70;;;1.00;;
53513;SDS011;39768;54.148;12.174;2022-08-01T12:14:56;7.93;;;0.98;;
53513;SDS011;39768;54.148;12.174;2022-08-01T12:18:59;6.05;;;0.65;;
53513;SDS011;39768;54.148;12.174;2022-08-01T12:23:06;2.95;;;0.88;;
53513;SDS011;39768;54.148;12.174;2022-08-01T12:27:09;1.50;;;0.52;;
53513;SDS011;39768;54.148;12.174;2022-08-01T12:31:12;0.80;;;0.50;;
53513;SDS011;39768;54.148;12.174;2022-08-01T12:35:14;0.82;;;0.70;;
53513;SDS011;39768;54.148;12.174;2022-08-01T12:39:18;2.90;;;0.40;;
53513;SDS011;39768;54.148;12.174;2022-08-01T12:43:21;2.45;;;0.95;;
53513;SDS011;39768;54.148;12.174;2022-08-01T12:47:29;1.05;;;0.43;;
53513;SDS011;39768;54.148;12.174;2022-08-01T12:51:30;0.65;;;0.47;;
53513;SDS011;39768;54.148;12.174;2022-08-01T12:55:32;1.13;;;0.50;;
53513;SDS011;39768;54.148;12.174;2022-08-01T12:59:36;3.20;;;1.10;;
53513;SDS011;39768;54.148;12.174;2022-08-01T13:03:38;1.17;;;0.63;;
53513;SDS011;39768;54.148;12.174;2022-08-01T13:07:41;1.05;;;0.43;;
53513;SDS011;39768;54.148;12.174;2022-08-01T13:11:46;0.57;;;0.57;;
53513;SDS011;39768;54.148;12.174;2022-08-01T13:16:05;2.28;;;0.70;;
53513;SDS011;39768;54.148;12.174;2022-08-01T13:20:21;2.78;;;0.63;;
53513;SDS011;39768;54.148;12.174;2022-08-01T13:24:41;2.75;;;0.65;;
53513;SDS011;39768;54.148;12.174;2022-08-01T13:28:42;0.68;;;0.68;;
53513;SDS011;39768;54.148;12.174;2022-08-01T13:32:53;1.77;;;0.80;;
53513;SDS011;39768;54.148;12.174;2022-08-01T13:37:02;0.60;;;0.60;;
53513;SDS011;39768;54.148;12.174;2022-08-01T13:41:07;0.90;;;0.65;;
53513;SDS011;39768;54.148;12.174;2022-08-01T13:45:09;5.70;;;0.50;;
53513;SDS011;39768;54.148;12.174;2022-08-01T13:49:15;0.30;;;0.30;;
53513;SDS011;39768;54.148;12.174;2022-08-01T13:53:17;3.03;;;0.50;;
53513;SDS011;39768;54.148;12.174;2022-08-01T13:57:19;1.25;;;0.50;;
53513;SDS011;39768;54.148;12.174;2022-08-01T14:01:20;2.70;;;0.52;;
53513;SDS011;39768;54.148;12.174;2022-08-01T14:05:22;5.28;;;0.68;;
53513;SDS011;39768;54.148;12.174;2022-08-01T14:09:24;7.55;;;1.15;;
53513;SDS011;39768;54.148;12.174;2022-08-01T14:13:26;1.58;;;0.50;;
53513;SDS011;39768;54.148;12.174;2022-08-01T14:17:33;5.35;;;0.50;;
53513;SDS011;39768;54.148;12.174;2022-08-01T14:21:37;0.98;;;0.43;;
53513;SDS011;39768;54.148;12.174;2022-08-01T14:25:39;4.90;;;0.60;;
53513;SDS011;39768;54.148;12.174;2022-08-01T14:30:05;1.00;;;0.47;;
53513;SDS011;39768;54.148;12.174;2022-08-01T14:34:07;1.40;;;0.70;;
53513;SDS011;39768;54.148;12.174;2022-08-01T14:38:09;3.35;;;0.65;;
53513;SDS011;39768;54.148;12.174;2022-08-01T14:42:11;5.05;;;0.65;;
53513;SDS011;39768;54.148;12.174;2022-08-01T14:46:12;3.60;;;1.10;;
53513;SDS011;39768;54.148;12.174;2022-08-01T14:50:14;6.78;;;0.70;;
53513;SDS011;39768;54.148;12.174;2022-08-01T14:54:16;2.55;;;0.52;;
53513;SDS011;39768;54.148;12.174;2022-08-01T14:58:18;4.68;;;0.60;;
53513;SDS011;39768;54.148;12.174;2022-08-01T15:02:20;1.55;;;0.63;;
53513;SDS011;39768;54.148;12.174;2022-08-01T15:06:22;1.88;;;0.40;;
53513;SDS011;39768;54.148;12.174;2022-08-01T15:10:24;4.38;;;0.65;;
53513;SDS011;39768;54.148;12.174;2022-08-01T15:14:25;3.28;;;0.77;;
53513;SDS011;39768;54.148;12.174;2022-08-01T15:18:46;5.45;;;0.57;;
53513;SDS011;39768;54.148;12.174;2022-08-01T15:22:47;1.15;;;0.50;;
53513;SDS011;39768;54.148;12.174;2022-08-01T15:26:49;3.67;;;0.63;;
53513;SDS011;39768;54.148;12.174;2022-08-01T15:30:51;3.53;;;0.50;;
53513;SDS011;39768;54.148;12.174;2022-08-01T15:34:52;3.10;;;0.50;;
53513;SDS011;39768;54.148;12.174;2022-08-01T15:38:54;0.68;;;0.57;;
53513;SDS011;39768;54.148;12.174;2022-08-01T15:42:56;1.67;;;0.40;;
53513;SDS011;39768;54.148;12.174;2022-08-01T15:46:57;2.05;;;0.90;;
53513;SDS011;39768;54.148;12.174;2022-08-01T15:50:59;3.50;;;0.60;;
53513;SDS011;39768;54.148;12.174;2022-08-01T15:55:00;0.47;;;0.47;;
53513;SDS011;39768;54.148;12.174;2022-08-01T15:59:02;0.85;;;0.70;;
53513;SDS011;39768;54.148;12.174;2022-08-01T16:03:04;1.95;;;0.50;;
53513;SDS011;39768;54.148;12.174;2022-08-01T16:07:06;0.77;;;0.40;;
53513;SDS011;39768;54.148;12.174;2022-08-01T16:11:08;0.65;;;0.20;;
53513;SDS011;39768;54.148;12.174;2022-08-01T16:15:10;2.08;;;1.05;;
53513;SDS011;39768;54.148;12.174;2022-08-01T16:19:11;1.10;;;0.50;;
53513;SDS011;39768;54.148;12.174;2022-08-01T16:23:19;1.45;;;0.93;;
53513;SDS011;39768;54.148;12.174;2022-08-01T16:27:20;3.05;;;0.65;;
53513;SDS011;39768;54.148;12.174;2022-08-01T16:31:27;1.88;;;0.40;;
53513;SDS011;39768;54.148;12.174;2022-08-01T16:35:37;1.80;;;0.70;;
53513;SDS011;39768;54.148;12.174;2022-08-01T16:39:39;1.15;;;0.70;;
53513;SDS011;39768;54.148;12.174;2022-08-01T16:43:40;0.77;;;0.77;;
53513;SDS011;39768;54.148;12.174;2022-08-01T16:47:46;2.53;;;0.80;;
53513;SDS011;39768;54.148;12.174;2022-08-01T16:51:48;1.05;;;0.43;;
53513;SDS011;39768;54.148;12.174;2022-08-01T16:55:50;4.88;;;0.82;;
53513;SDS011;39768;54.148;12.174;2022-08-01T16:59:52;1.58;;;0.70;;
53513;SDS011;39768;54.148;12.174;2022-08-01T17:03:53;1.33;;;0.75;;
53513;SDS011;39768;54.148;12.174;2022-08-01T17:07:59;0.70;;;0.70;;
53513;SDS011;39768;54.148;12.174;2022-08-01T17:12:01;5.93;;;0.55;;
53513;SDS011;39768;54.148;12.174;2022-08-01T17:16:02;0.57;;;0.40;;
53513;SDS011;39768;54.148;12.174;2022-08-01T17:20:06;1.33;;;0.40;;
53513;SDS011;39768;54.148;12.174;2022-08-01T17:24:08;0.93;;;0.55;;
53513;SDS011;39768;54.148;12.174;2022-08-01T17:28:10;3.67;;;0.57;;
53513;SDS011;39768;54.148;12.174;2022-08-01T17:32:12;1.67;;;0.60;;
53513;SDS011;39768;54.148;12.174;2022-08-01T17:36:14;9.02;;;1.00;;
53513;SDS011;39768;54.148;12.174;2022-08-01T17:40:18;0.57;;;0.57;;
53513;SDS011;39768;54.148;12.174;2022-08-01T17:44:39;0.70;;;0.63;;
53513;SDS011;39768;54.148;12.174;2022-08-01T17:48:42;3.80;;;0.70;;
53513;SDS011;39768;54.148;12.174;2022-08-01T17:52:44;0.77;;;0.40;;
53513;SDS011;39768;54.148;12.174;2022-08-01T17:56:46;1.23;;;0.40;;
53513;SDS011;39768;54.148;12.174;2022-08-01T18:00:48;0.52;;;0.40;;
53513;SDS011;39768;54.148;12.174;2022-08-01T18:04:49;2.08;;;0.77;;
53513;SDS011;39768;54.148;12.174;2022-08-01T18:08:53;5.22;;;0.55;;
53513;SDS011;39768;54.148;12.174;2022-08-01T18:12:56;0.43;;;0.43;;
53513;SDS011;39768;54.148;12.174;2022-08-01T18:16:58;0.47;;;0.47;;
53513;SDS011;39768;54.148;12.174;2022-08-01T18:21:02;1.58;;;0.47;;
53513;SDS011;39768;54.148;12.174;2022-08-01T18:25:04;2.45;;;0.40;;
53513;SDS011;39768;54.148;12.174;2022-08-01T18:29:09;1.45;;;0.50;;
53513;SDS011;39768;54.148;12.174;2022-08-01T18:33:10;1.52;;;0.47;;
53513;SDS011;39768;54.148;12.174;2022-08-01T18:37:12;1.58;;;0.65;;
53513;SDS011;39768;54.148;12.174;2022-08-01T18:41:16;1.15;;;0.52;;
53513;SDS011;39768;54.148;12.174;2022-08-01T18:45:18;0.10;;;0.10;;
53513;SDS011;39768;54.148;12.174;2022-08-01T18:49:19;0.52;;;0.38;;
53513;SDS011;39768;54.148;12.174;2022-08-01T18:53:21;2.10;;;0.60;;
53513;SDS011;39768;54.148;12.174;2022-08-01T18:57:24;1.38;;;0.50;;
53513;SDS011;39768;54.148;12.174;2022-08-01T19:01:25;4.63;;;0.80;;
53513;SDS011;39768;54.148;12.174;2022-08-01T19:05:27;1.33;;;0.60;;
53513;SDS011;39768;54.148;12.174;2022-08-01T19:09:29;2.42;;;0.45;;
53513;SDS011;39768;54.148;12.174;2022-08-01T19:13:30;0.30;;;0.22;;
53513;SDS011;39768;54.148;12.174;2022-08-01T19:17:32;1.10;;;0.70;;
53513;SDS011;39768;54.148;12.174;2022-08-01T19:21:34;1.08;;;0.20;;
53513;SDS011;39768;54.148;12.174;2022-08-01T19:25:40;1.10;;;0.30;;
53513;SDS011;39768;54.148;12.174;2022-08-01T19:29:55;2.25;;;0.45;;
53513;SDS011;39768;54.148;12.174;2022-08-01T19:33:59;0.55;;;0.30;;
53513;SDS011;39768;54.148;12.174;2022-08-01T19:38:00;0.55;;;0.30;;
53513;SDS011;39768;54.148;12.174;2022-08-01T19:42:02;2.15;;;0.50;;
53513;SDS011;39768;54.148;12.174;2022-08-01T19:46:05;2.28;;;0.55;;
53513;SDS011;39768;54.148;12.174;2022-08-01T19:50:07;4.15;;;0.50;;
53513;SDS011;39768;54.148;12.174;2022-08-01T19:54:10;2.17;;;0.40;;
53513;SDS011;39768;54.148;12.174;2022-08-01T19:58:12;0.82;;;0.52;;
53513;SDS011;39768;54.148;12.174;2022-08-01T20:02:27;6.80;;;0.60;;
53513;SDS011;39768;54.148;12.174;2022-08-01T20:06:30;2.80;;;0.50;;
53513;SDS011;39768;54.148;12.174;2022-08-01T20:10:32;1.05;;;0.55;;
53513;SDS011;39768;54.148;12.174;2022-08-01T20:14:34;4.35;;;0.70;;
53513;SDS011;39768;54.148;12.174;2022-08-01T20:18:37;0.35;;;0.35;;
53513;SDS011;39768;54.148;12.174;2022-08-01T20:22:39;4.25;;;0.38;;
53513;SDS011;39768;54.148;12.174;2022-08-01T20:26:43;3.63;;;0.60;;
53513;SDS011;39768;54.148;12.174;2022-08-01T20:30:46;0.77;;;0.40;;
53513;SDS011;39768;54.148;12.174;2022-08-01T20:34:54;4.95;;;0.60;;
53513;SDS011;39768;54.148;12.174;2022-08-01T20:38:56;0.50;;;0.40;;
53513;SDS011;39768;54.148;12.174;2022-08-01T20:42:59;1.92;;;0.45;;
53513;SDS011;39768;54.148;12.174;2022-08-01T20:47:03;0.40;;;0.40;;
53513;SDS011;39768;54.148;12.174;2022-08-01T20:51:08;1.05;;;0.65;;
53513;SDS011;39768;54.148;12.174;2022-08-01T20:55:15;0.57;;;0.35;;
53513;SDS011;39768;54.148;12.174;2022-08-01T20:59:18;1.45;;;0.32;;
53513;SDS011;39768;54.148;12.174;2022-08-01T21:08:40;0.75;;;0.65;;
53513;SDS011;39768;54.148;12.174;2022-08-01T21:12:53;2.22;;;0.60;;
53513;SDS011;39768;54.148;12.174;2022-08-01T21:16:59;0.60;;;0.40;;
53513;SDS011;39768;54.148;12.174;2022-08-01T21:21:08;2.35;;;0.52;;
53513;SDS011;39768;54.148;12.174;2022-08-01T21:25:10;0.50;;;0.43;;
53513;SDS011;39768;54.148;12.174;2022-08-01T21:29:17;3.35;;;0.75;;
53513;SDS011;39768;54.148;12.174;2022-08-01T21:33:23;0.55;;;0.35;;
53513;SDS011;39768;54.148;12.174;2022-08-01T21:37:26;5.47;;;0.60;;
53513;SDS011;39768;54.148;12.174;2022-08-01T21:41:30;2.20;;;0.70;;
53513;SDS011;39768;54.148;12.174;2022-08-01T21:45:52;7.00;;;0.70;;
53513;SDS011;39768;54.148;12.174;2022-08-01T21:50:00;2.80;;;0.43;;
53513;SDS011;39768;54.148;12.174;2022-08-01T21:54:06;0.35;;;0.35;;
53513;SDS011;39768;54.148;12.174;2022-08-01T22:02:49;2.92;;;0.55;;
53513;SDS011;39768;54.148;12.174;2022-08-01T22:06:57;0.63;;;0.38;;
53513;SDS011;39768;54.148;12.174;2022-08-01T22:11:02;4.07;;;0.50;;
53513;SDS011;39768;54.148;12.174;2022-08-01T22:15:07;1.77;;;0.40;;
53513;SDS011;39768;54.148;12.174;2022-08-01T22:19:08;2.85;;;0.55;;
53513;SDS011;39768;54.148;12.174;2022-08-01T22:23:10;0.35;;;0.30;;
53513;SDS011;39768;54.148;12.174;2022-08-01T22:27:12;0.90;;;0.70;;
53513;SDS011;39768;54.148;12.174;2022-08-01T22:31:23;2.03;;;0.55;;
53513;SDS011;39768;54.148;12.174;2022-08-01T22:35:25;1.38;;;0.88;;
53513;SDS011;39768;54.148;12.174;2022-08-01T22:39:28;2.30;;;0.80;;
53513;SDS011;39768;54.148;12.174;2022-08-01T22:52:19;1.27;;;0.57;;
53513;SDS011;39768;54.148;12.174;2022-08-01T22:56:28;0.47;;;0.40;;
53513;SDS011;39768;54.148;12.174;2022-08-01T23:00:32;0.30;;;0.30;;
53513;SDS011;39768;54.148;12.174;2022-08-01T23:04:40;3.00;;;1.17;;
53513;SDS011;39768;54.148;12.174;2022-08-01T23:12:47;4.72;;;0.50;;
53513;SDS011;39768;54.148;12.174;2022-08-01T23:16:51;1.02;;;0.50;;
53513;SDS011;39768;54.148;12.174;2022-08-01T23:20:56;4.55;;;0.77;;
53513;SDS011;39768;54.148;12.174;2022-08-01T23:24:59;3.63;;;0.70;;
53513;SDS011;39768;54.148;12.174;2022-08-01T23:29:05;1.75;;;0.57;;
53513;SDS011;39768;54.148;12.174;2022-08-01T23:33:07;1.85;;;0.70;;
53513;SDS011;39768;54.148;12.174;2022-08-01T23:37:08;1.58;;;0.60;;
53513;SDS011;39768;54.148;12.174;2022-08-01T23:41:10;3.53;;;0.68;;
53513;SDS011;39768;54.148;12.174;2022-08-01T23:49:21;2.75;;;0.68;;
53513;SDS011;39768;54.148;12.174;2022-08-01T23:53:22;1.02;;;0.60;;
53513;SDS011;39768;54.148;12.174;2022-08-01T23:57:24;5.88;;;0.50;;
